sensor_id;sensor_type;location;lat;lon;timestamp;pressure;altitude;pressure_sealevel;temperature;humidity
50226;BME280;36113;50.742;6.432;2022-07-23T00:02:15;98943.25;;;16.40;100.00
50226;BME280;36113;50.742;6.432;2022-07-23T00:04:41;98950.22;;;16.40;100.00
50226;BME280;36113;50.742;6.432;2022-07-23T00:07:06;98950.69;;;16.34;100.00
50226;BME280;36113;50.742;6.432;2022-07-23T00:09:32;98923.69;;;16.20;100.00
50226;BME280;36113;50.742;6.432;2022-07-23T00:11:57;98924.81;;;16.29;100.00
50226;BME280;36113;50.742;6.432;2022-07-23T00:14:22;98928.22;;;16.18;100.00
50226;BME280;36113;50.742;6.432;2022-07-23T00:16:48;98928.97;;;16.07;100.00
50226;BME280;36113;50.742;6.432;2022-07-23T00:19:13;98930.56;;;15.97;100.00
50226;BME280;36113;50.742;6.432;2022-07-23T00:21:38;98939.00;;;16.01;100.00
50226;BME280;36113;50.742;6.432;2022-07-23T00:24:04;98924.47;;;15.97;100.00
50226;BME280;36113;50.742;6.432;2022-07-23T00:26:29;98924.66;;;16.06;100.00
50226;BME280;36113;50.742;6.432;2022-07-23T00:28:55;98920.78;;;16.12;100.00
50226;BME280;36113;50.742;6.432;2022-07-23T00:31:20;98910.75;;;16.06;100.00
50226;BME280;36113;50.742;6.432;2022-07-23T00:33:45;98926.00;;;16.12;100.00
50226;BME280;36113;50.742;6.432;2022-07-23T00:36:11;98923.50;;;16.10;100.00
50226;BME280;36113;50.742;6.432;2022-07-23T00:38:36;98919.13;;;16.11;100.00
50226;BME280;36113;50.742;6.432;2022-07-23T00:41:01;98932.72;;;16.16;100.00
50226;BME280;36113;50.742;6.432;2022-07-23T00:43:27;98929.59;;;16.11;100.00
50226;BME280;36113;50.742;6.432;2022-07-23T00:45:52;98916.00;;;16.06;100.00
50226;BME280;36113;50.742;6.432;2022-07-23T00:48:17;98934.59;;;16.14;100.00
50226;BME280;36113;50.742;6.432;2022-07-23T00:50:43;98931.84;;;16.16;100.00
50226;BME280;36113;50.742;6.432;2022-07-23T00:53:09;98928.53;;;16.13;100.00
50226;BME280;36113;50.742;6.432;2022-07-23T00:55:34;98907.91;;;16.09;100.00
50226;BME280;36113;50.742;6.432;2022-07-23T00:58:01;98915.94;;;16.19;100.00
50226;BME280;36113;50.742;6.432;2022-07-23T01:00:26;98918.69;;;16.17;100.00
50226;BME280;36113;50.742;6.432;2022-07-23T01:02:52;98913.78;;;16.12;100.00
50226;BME280;36113;50.742;6.432;2022-07-23T01:05:17;98912.81;;;16.13;100.00
50226;BME280;36113;50.742;6.432;2022-07-23T01:07:47;98917.75;;;16.18;100.00
50226;BME280;36113;50.742;6.432;2022-07-23T01:10:13;98914.16;;;16.19;100.00
50226;BME280;36113;50.742;6.432;2022-07-23T01:13:00;98917.94;;;16.15;100.00
50226;BME280;36113;50.742;6.432;2022-07-23T01:15:27;98915.13;;;16.05;100.00
50226;BME280;36113;50.742;6.432;2022-07-23T01:17:52;98910.44;;;15.98;100.00
50226;BME280;36113;50.742;6.432;2022-07-23T01:20:18;98909.94;;;15.92;100.00
50226;BME280;36113;50.742;6.432;2022-07-23T01:22:44;98893.31;;;15.81;100.00
50226;BME280;36113;50.742;6.432;2022-07-23T01:25:10;98905.13;;;15.86;100.00
50226;BME280;36113;50.742;6.432;2022-07-23T01:27:35;98900.44;;;15.79;100.00
50226;BME280;36113;50.742;6.432;2022-07-23T01:30:02;98903.88;;;15.79;100.00
50226;BME280;36113;50.742;6.432;2022-07-23T01:32:28;98903.03;;;15.79;100.00
50226;BME280;36113;50.742;6.432;2022-07-23T01:34:53;98893.81;;;15.73;100.00
50226;BME280;36113;50.742;6.432;2022-07-23T01:37:18;98892.34;;;15.69;100.00
50226;BME280;36113;50.742;6.432;2022-07-23T01:39:44;98887.56;;;15.63;100.00
50226;BME280;36113;50.742;6.432;2022-07-23T01:42:09;98886.78;;;15.61;100.00
50226;BME280;36113;50.742;6.432;2022-07-23T01:44:35;98889.75;;;15.56;100.00
50226;BME280;36113;50.742;6.432;2022-07-23T01:47:00;98893.59;;;15.50;100.00
50226;BME280;36113;50.742;6.432;2022-07-23T01:49:25;98893.94;;;15.46;100.00
50226;BME280;36113;50.742;6.432;2022-07-23T01:51:51;98888.28;;;15.39;100.00
50226;BME280;36113;50.742;6.432;2022-07-23T01:54:29;98889.09;;;15.27;100.00
50226;BME280;36113;50.742;6.432;2022-07-23T01:56:55;98899.75;;;15.24;100.00
50226;BME280;36113;50.742;6.432;2022-07-23T01:59:21;98890.22;;;15.23;100.00
50226;BME280;36113;50.742;6.432;2022-07-23T02:01:47;98880.84;;;15.20;100.00
50226;BME280;36113;50.742;6.432;2022-07-23T02:04:13;98884.38;;;15.19;100.00
50226;BME280;36113;50.742;6.432;2022-07-23T02:06:39;98895.78;;;15.18;100.00
50226;BME280;36113;50.742;6.432;2022-07-23T02:09:04;98890.94;;;15.12;100.00
50226;BME280;36113;50.742;6.432;2022-07-23T02:11:29;98885.81;;;14.97;100.00
50226;BME280;36113;50.742;6.432;2022-07-23T02:13:55;98886.94;;;14.93;100.00
50226;BME280;36113;50.742;6.432;2022-07-23T02:16:20;98878.56;;;14.88;100.00
50226;BME280;36113;50.742;6.432;2022-07-23T02:18:45;98876.28;;;14.84;100.00
50226;BME280;36113;50.742;6.432;2022-07-23T02:21:12;98869.38;;;14.82;100.00
50226;BME280;36113;50.742;6.432;2022-07-23T02:23:37;98867.69;;;14.81;100.00
50226;BME280;36113;50.742;6.432;2022-07-23T02:26:02;98877.41;;;14.79;100.00
50226;BME280;36113;50.742;6.432;2022-07-23T02:28:28;98866.06;;;14.66;100.00
50226;BME280;36113;50.742;6.432;2022-07-23T02:30:53;98875.50;;;14.69;100.00
50226;BME280;36113;50.742;6.432;2022-07-23T02:33:18;98865.72;;;14.58;100.00
50226;BME280;36113;50.742;6.432;2022-07-23T02:35:43;98870.75;;;14.61;100.00
50226;BME280;36113;50.742;6.432;2022-07-23T02:38:09;98878.56;;;14.61;100.00
50226;BME280;36113;50.742;6.432;2022-07-23T02:40:34;98866.94;;;14.52;100.00
50226;BME280;36113;50.742;6.432;2022-07-23T02:42:59;98877.69;;;14.48;100.00
50226;BME280;36113;50.742;6.432;2022-07-23T02:45:25;98880.03;;;14.38;100.00
50226;BME280;36113;50.742;6.432;2022-07-23T02:47:50;98885.25;;;14.38;100.00
50226;BME280;36113;50.742;6.432;2022-07-23T02:50:15;98890.47;;;14.38;100.00
50226;BME280;36113;50.742;6.432;2022-07-23T02:52:41;98891.38;;;14.37;100.00
50226;BME280;36113;50.742;6.432;2022-07-23T02:55:07;98876.31;;;14.28;100.00
50226;BME280;36113;50.742;6.432;2022-07-23T02:57:32;98894.22;;;14.34;100.00
50226;BME280;36113;50.742;6.432;2022-07-23T02:59:58;98885.63;;;14.32;100.00
50226;BME280;36113;50.742;6.432;2022-07-23T03:02:23;98891.16;;;14.27;100.00
50226;BME280;36113;50.742;6.432;2022-07-23T03:04:49;98894.78;;;14.24;100.00
50226;BME280;36113;50.742;6.432;2022-07-23T03:07:16;98889.84;;;14.20;100.00
50226;BME280;36113;50.742;6.432;2022-07-23T03:09:41;98887.34;;;14.18;100.00
50226;BME280;36113;50.742;6.432;2022-07-23T03:12:07;98885.22;;;14.11;100.00
50226;BME280;36113;50.742;6.432;2022-07-23T03:14:32;98889.78;;;14.07;100.00
50226;BME280;36113;50.742;6.432;2022-07-23T03:16:58;98890.06;;;14.02;100.00
50226;BME280;36113;50.742;6.432;2022-07-23T03:19:24;98894.72;;;13.97;100.00
50226;BME280;36113;50.742;6.432;2022-07-23T03:21:50;98891.28;;;13.97;100.00
50226;BME280;36113;50.742;6.432;2022-07-23T03:24:15;98887.53;;;14.01;100.00
50226;BME280;36113;50.742;6.432;2022-07-23T03:26:43;98897.03;;;14.02;100.00
50226;BME280;36113;50.742;6.432;2022-07-23T03:29:08;98890.25;;;13.99;100.00
50226;BME280;36113;50.742;6.432;2022-07-23T03:31:33;98895.84;;;13.93;100.00
50226;BME280;36113;50.742;6.432;2022-07-23T03:33:59;98894.25;;;13.91;100.00
50226;BME280;36113;50.742;6.432;2022-07-23T03:36:24;98885.44;;;13.79;100.00
50226;BME280;36113;50.742;6.432;2022-07-23T03:38:50;98893.25;;;13.79;100.00
50226;BME280;36113;50.742;6.432;2022-07-23T03:41:16;98891.28;;;13.82;100.00
50226;BME280;36113;50.742;6.432;2022-07-23T03:43:41;98888.78;;;13.81;100.00
50226;BME280;36113;50.742;6.432;2022-07-23T03:46:06;98883.75;;;13.78;100.00
50226;BME280;36113;50.742;6.432;2022-07-23T03:48:32;98879.44;;;13.77;100.00
50226;BME280;36113;50.742;6.432;2022-07-23T03:50:57;98887.28;;;13.77;100.00
50226;BME280;36113;50.742;6.432;2022-07-23T03:53:23;98882.34;;;13.72;100.00
50226;BME280;36113;50.742;6.432;2022-07-23T03:55:48;98887.56;;;13.72;100.00
50226;BME280;36113;50.742;6.432;2022-07-23T03:58:13;98889.22;;;13.73;100.00
50226;BME280;36113;50.742;6.432;2022-07-23T04:00:39;98885.63;;;13.76;100.00
50226;BME280;36113;50.742;6.432;2022-07-23T04:03:04;98893.44;;;13.76;100.00
50226;BME280;36113;50.742;6.432;2022-07-23T04:05:29;98894.44;;;13.73;100.00
50226;BME280;36113;50.742;6.432;2022-07-23T04:07:55;98901.44;;;13.73;100.00
50226;BME280;36113;50.742;6.432;2022-07-23T04:10:20;98898.09;;;13.71;100.00
50226;BME280;36113;50.742;6.432;2022-07-23T04:12:46;98899.47;;;13.76;100.00
50226;BME280;36113;50.742;6.432;2022-07-23T04:15:11;98894.06;;;13.79;100.00
50226;BME280;36113;50.742;6.432;2022-07-23T04:17:36;98907.66;;;13.84;100.00
50226;BME280;36113;50.742;6.432;2022-07-23T04:20:02;98905.72;;;13.88;100.00
50226;BME280;36113;50.742;6.432;2022-07-23T04:22:28;98908.13;;;13.91;100.00
50226;BME280;36113;50.742;6.432;2022-07-23T04:24:53;98910.44;;;13.96;100.00
50226;BME280;36113;50.742;6.432;2022-07-23T04:27:18;98907.09;;;13.94;100.00
50226;BME280;36113;50.742;6.432;2022-07-23T04:29:44;98926.47;;;14.04;100.00
50226;BME280;36113;50.742;6.432;2022-07-23T04:32:09;98927.97;;;14.08;100.00
50226;BME280;36113;50.742;6.432;2022-07-23T04:34:35;98926.94;;;14.11;100.00
50226;BME280;36113;50.742;6.432;2022-07-23T04:37:01;98926.47;;;14.18;100.00
50226;BME280;36113;50.742;6.432;2022-07-23T04:39:26;98931.47;;;14.21;100.00
50226;BME280;36113;50.742;6.432;2022-07-23T04:41:51;98933.81;;;14.26;100.00
50226;BME280;36113;50.742;6.432;2022-07-23T04:44:17;98926.91;;;14.25;100.00
50226;BME280;36113;50.742;6.432;2022-07-23T04:46:42;98941.34;;;14.31;100.00
50226;BME280;36113;50.742;6.432;2022-07-23T04:49:07;98950.28;;;14.41;100.00
50226;BME280;36113;50.742;6.432;2022-07-23T04:51:33;98952.41;;;14.49;100.00
50226;BME280;36113;50.742;6.432;2022-07-23T04:53:58;98935.91;;;14.48;100.00
50226;BME280;36113;50.742;6.432;2022-07-23T04:56:23;98937.69;;;14.62;100.00
50226;BME280;36113;50.742;6.432;2022-07-23T04:58:49;98946.59;;;14.72;100.00
50226;BME280;36113;50.742;6.432;2022-07-23T05:01:14;98955.53;;;14.82;100.00
50226;BME280;36113;50.742;6.432;2022-07-23T05:03:39;98949.41;;;14.96;100.00
50226;BME280;36113;50.742;6.432;2022-07-23T05:06:05;98953.09;;;15.07;100.00
50226;BME280;36113;50.742;6.432;2022-07-23T05:08:30;98944.22;;;15.09;100.00
50226;BME280;36113;50.742;6.432;2022-07-23T05:10:56;98945.41;;;15.18;100.00
50226;BME280;36113;50.742;6.432;2022-07-23T05:13:21;98955.56;;;15.35;100.00
50226;BME280;36113;50.742;6.432;2022-07-23T05:15:46;98955.78;;;15.45;100.00
50226;BME280;36113;50.742;6.432;2022-07-23T05:18:12;98944.84;;;15.53;100.00
50226;BME280;36113;50.742;6.432;2022-07-23T05:20:37;98958.31;;;15.72;100.00
50226;BME280;36113;50.742;6.432;2022-07-23T05:23:03;98944.53;;;15.83;100.00
50226;BME280;36113;50.742;6.432;2022-07-23T05:25:29;98958.91;;;15.90;100.00
50226;BME280;36113;50.742;6.432;2022-07-23T05:27:54;98941.81;;;15.85;100.00
50226;BME280;36113;50.742;6.432;2022-07-23T05:30:19;98953.16;;;15.85;100.00
50226;BME280;36113;50.742;6.432;2022-07-23T05:32:45;98952.16;;;15.73;100.00
50226;BME280;36113;50.742;6.432;2022-07-23T05:35:11;98956.16;;;15.79;100.00
50226;BME280;36113;50.742;6.432;2022-07-23T05:37:36;98961.41;;;15.79;100.00
50226;BME280;36113;50.742;6.432;2022-07-23T05:40:06;98957.72;;;15.94;100.00
50226;BME280;36113;50.742;6.432;2022-07-23T05:42:36;98966.72;;;16.03;100.00
50226;BME280;36113;50.742;6.432;2022-07-23T05:45:02;98967.25;;;16.08;100.00
50226;BME280;36113;50.742;6.432;2022-07-23T05:47:28;98965.16;;;16.13;100.00
50226;BME280;36113;50.742;6.432;2022-07-23T05:49:54;98966.19;;;16.24;100.00
50226;BME280;36113;50.742;6.432;2022-07-23T05:52:19;98963.66;;;16.22;100.00
50226;BME280;36113;50.742;6.432;2022-07-23T05:54:44;98962.06;;;16.33;100.00
50226;BME280;36113;50.742;6.432;2022-07-23T05:57:10;98971.06;;;16.41;100.00
50226;BME280;36113;50.742;6.432;2022-07-23T05:59:35;98957.03;;;16.42;100.00
50226;BME280;36113;50.742;6.432;2022-07-23T06:02:01;98975.31;;;16.55;100.00
50226;BME280;36113;50.742;6.432;2022-07-23T06:04:26;98972.38;;;16.60;100.00
50226;BME280;36113;50.742;6.432;2022-07-23T06:06:51;98975.22;;;16.57;100.00
50226;BME280;36113;50.742;6.432;2022-07-23T06:09:17;98975.88;;;16.47;100.00
50226;BME280;36113;50.742;6.432;2022-07-23T06:11:43;98977.91;;;16.68;100.00
50226;BME280;36113;50.742;6.432;2022-07-23T06:14:08;98977.56;;;16.73;100.00
50226;BME280;36113;50.742;6.432;2022-07-23T06:16:34;98990.09;;;16.93;100.00
50226;BME280;36113;50.742;6.432;2022-07-23T06:18:59;98978.88;;;17.04;100.00
50226;BME280;36113;50.742;6.432;2022-07-23T06:21:24;98978.16;;;17.02;100.00
50226;BME280;36113;50.742;6.432;2022-07-23T06:23:50;98977.25;;;17.14;100.00
50226;BME280;36113;50.742;6.432;2022-07-23T06:26:15;98978.34;;;17.23;100.00
50226;BME280;36113;50.742;6.432;2022-07-23T06:28:40;98989.91;;;17.56;100.00
50226;BME280;36113;50.742;6.432;2022-07-23T06:31:06;98979.28;;;17.57;100.00
50226;BME280;36113;50.742;6.432;2022-07-23T06:33:31;98986.94;;;17.72;100.00
50226;BME280;36113;50.742;6.432;2022-07-23T06:35:56;98979.84;;;17.38;100.00
50226;BME280;36113;50.742;6.432;2022-07-23T06:38:22;98977.16;;;17.27;100.00
50226;BME280;36113;50.742;6.432;2022-07-23T06:40:47;98971.41;;;17.22;100.00
50226;BME280;36113;50.742;6.432;2022-07-23T06:43:12;98982.97;;;17.19;100.00
50226;BME280;36113;50.742;6.432;2022-07-23T06:45:38;98989.25;;;17.41;100.00
50226;BME280;36113;50.742;6.432;2022-07-23T06:48:03;98974.31;;;17.30;100.00
50226;BME280;36113;50.742;6.432;2022-07-23T06:50:29;98988.63;;;17.37;100.00
50226;BME280;36113;50.742;6.432;2022-07-23T06:52:57;98984.72;;;17.43;100.00
50226;BME280;36113;50.742;6.432;2022-07-23T06:55:23;98995.75;;;17.59;100.00
50226;BME280;36113;50.742;6.432;2022-07-23T06:57:48;99004.81;;;17.67;100.00
50226;BME280;36113;50.742;6.432;2022-07-23T07:00:13;99002.22;;;17.78;100.00
50226;BME280;36113;50.742;6.432;2022-07-23T07:02:39;99007.28;;;17.57;100.00
50226;BME280;36113;50.742;6.432;2022-07-23T07:05:04;99010.50;;;17.49;100.00
50226;BME280;36113;50.742;6.432;2022-07-23T07:07:30;99011.75;;;17.79;100.00
50226;BME280;36113;50.742;6.432;2022-07-23T07:09:55;98997.41;;;18.07;100.00
50226;BME280;36113;50.742;6.432;2022-07-23T07:12:20;99012.22;;;18.20;100.00
50226;BME280;36113;50.742;6.432;2022-07-23T07:14:46;99009.59;;;18.31;100.00
50226;BME280;36113;50.742;6.432;2022-07-23T07:17:11;99019.84;;;18.11;100.00
50226;BME280;36113;50.742;6.432;2022-07-23T07:19:37;99024.63;;;17.82;100.00
50226;BME280;36113;50.742;6.432;2022-07-23T07:22:02;99023.66;;;18.07;100.00
50226;BME280;36113;50.742;6.432;2022-07-23T07:24:28;99024.81;;;18.03;100.00
50226;BME280;36113;50.742;6.432;2022-07-23T07:26:53;99021.50;;;18.01;100.00
50226;BME280;36113;50.742;6.432;2022-07-23T07:29:19;99020.09;;;17.84;100.00
50226;BME280;36113;50.742;6.432;2022-07-23T07:31:44;99021.84;;;17.96;100.00
50226;BME280;36113;50.742;6.432;2022-07-23T07:34:09;99020.94;;;18.31;100.00
50226;BME280;36113;50.742;6.432;2022-07-23T07:36:35;99024.41;;;18.43;100.00
50226;BME280;36113;50.742;6.432;2022-07-23T07:39:03;99018.25;;;17.86;100.00
50226;BME280;36113;50.742;6.432;2022-07-23T07:41:29;99033.22;;;17.73;100.00
50226;BME280;36113;50.742;6.432;2022-07-23T07:43:54;99025.91;;;17.65;100.00
50226;BME280;36113;50.742;6.432;2022-07-23T07:46:19;99038.19;;;17.65;100.00
50226;BME280;36113;50.742;6.432;2022-07-23T07:48:45;99041.63;;;17.89;100.00
50226;BME280;36113;50.742;6.432;2022-07-23T07:51:10;99027.00;;;18.09;100.00
50226;BME280;36113;50.742;6.432;2022-07-23T07:53:35;99042.88;;;18.30;100.00
50226;BME280;36113;50.742;6.432;2022-07-23T07:56:01;99033.69;;;18.59;100.00
50226;BME280;36113;50.742;6.432;2022-07-23T07:58:26;99040.25;;;18.98;100.00
50226;BME280;36113;50.742;6.432;2022-07-23T08:00:51;99042.72;;;19.11;100.00
50226;BME280;36113;50.742;6.432;2022-07-23T08:03:17;99040.13;;;19.00;100.00
50226;BME280;36113;50.742;6.432;2022-07-23T08:05:42;99046.56;;;18.96;100.00
50226;BME280;36113;50.742;6.432;2022-07-23T08:08:08;99051.53;;;19.21;100.00
50226;BME280;36113;50.742;6.432;2022-07-23T08:10:35;99059.44;;;19.42;100.00
50226;BME280;36113;50.742;6.432;2022-07-23T08:13:01;99059.56;;;19.08;100.00
50226;BME280;36113;50.742;6.432;2022-07-23T08:15:28;99055.03;;;18.99;99.15
50226;BME280;36113;50.742;6.432;2022-07-23T08:17:54;99054.91;;;18.78;100.00
50226;BME280;36113;50.742;6.432;2022-07-23T08:20:21;99050.75;;;18.53;100.00
50226;BME280;36113;50.742;6.432;2022-07-23T08:25:20;99056.47;;;18.58;100.00
50226;BME280;36113;50.742;6.432;2022-07-23T08:27:46;99056.50;;;18.81;100.00
50226;BME280;36113;50.742;6.432;2022-07-23T08:30:12;99057.09;;;18.84;100.00
50226;BME280;36113;50.742;6.432;2022-07-23T08:32:52;99057.59;;;18.89;100.00
50226;BME280;36113;50.742;6.432;2022-07-23T08:35:21;99057.19;;;18.94;100.00
50226;BME280;36113;50.742;6.432;2022-07-23T08:37:47;99058.88;;;18.84;100.00
50226;BME280;36113;50.742;6.432;2022-07-23T08:40:12;99064.00;;;18.97;100.00
50226;BME280;36113;50.742;6.432;2022-07-23T08:42:38;99063.53;;;18.91;95.53
50226;BME280;36113;50.742;6.432;2022-07-23T08:45:07;99060.16;;;19.01;99.09
50226;BME280;36113;50.742;6.432;2022-07-23T08:47:33;99073.13;;;19.25;97.35
50226;BME280;36113;50.742;6.432;2022-07-23T08:49:58;99070.81;;;19.43;99.28
50226;BME280;36113;50.742;6.432;2022-07-23T08:52:24;99078.31;;;19.47;94.05
50226;BME280;36113;50.742;6.432;2022-07-23T08:54:50;99071.50;;;19.01;97.08
50226;BME280;36113;50.742;6.432;2022-07-23T08:57:16;99066.47;;;19.09;99.34
50226;BME280;36113;50.742;6.432;2022-07-23T08:59:42;99077.94;;;19.52;94.51
50226;BME280;36113;50.742;6.432;2022-07-23T09:02:07;99076.00;;;19.65;92.61
50226;BME280;36113;50.742;6.432;2022-07-23T09:04:32;99076.25;;;19.62;98.70
50226;BME280;36113;50.742;6.432;2022-07-23T09:06:58;99080.72;;;19.51;99.71
50226;BME280;36113;50.742;6.432;2022-07-23T09:09:24;99079.22;;;19.69;98.83
50226;BME280;36113;50.742;6.432;2022-07-23T09:14:45;99085.28;;;19.70;95.01
50226;BME280;36113;50.742;6.432;2022-07-23T09:17:16;99092.28;;;19.59;96.13
50226;BME280;36113;50.742;6.432;2022-07-23T09:19:43;99085.56;;;19.34;97.20
50226;BME280;36113;50.742;6.432;2022-07-23T09:22:21;99092.47;;;19.67;98.25
50226;BME280;36113;50.742;6.432;2022-07-23T09:25:09;99088.69;;;19.93;94.17
50226;BME280;36113;50.742;6.432;2022-07-23T09:28:04;99093.72;;;19.63;97.91
50226;BME280;36113;50.742;6.432;2022-07-23T09:30:32;99082.53;;;19.71;98.66
50226;BME280;36113;50.742;6.432;2022-07-23T09:33:13;99087.78;;;19.50;97.96
50226;BME280;36113;50.742;6.432;2022-07-23T09:35:51;99083.63;;;19.68;98.93
50226;BME280;36113;50.742;6.432;2022-07-23T09:38:18;99093.31;;;19.79;99.29
50226;BME280;36113;50.742;6.432;2022-07-23T09:40:45;99093.56;;;19.76;96.18
50226;BME280;36113;50.742;6.432;2022-07-23T09:43:12;99094.94;;;19.80;97.39
50226;BME280;36113;50.742;6.432;2022-07-23T09:45:38;99089.84;;;19.79;97.33
50226;BME280;36113;50.742;6.432;2022-07-23T09:48:11;99091.56;;;20.11;95.31
50226;BME280;36113;50.742;6.432;2022-07-23T09:50:38;99094.88;;;20.03;94.59
50226;BME280;36113;50.742;6.432;2022-07-23T09:53:03;99096.91;;;19.99;97.88
50226;BME280;36113;50.742;6.432;2022-07-23T09:55:33;99086.00;;;20.04;94.78
50226;BME280;36113;50.742;6.432;2022-07-23T09:58:02;99088.88;;;20.01;95.55
50226;BME280;36113;50.742;6.432;2022-07-23T10:00:28;99099.81;;;19.96;95.16
50226;BME280;36113;50.742;6.432;2022-07-23T10:02:54;99091.38;;;19.81;96.19
50226;BME280;36113;50.742;6.432;2022-07-23T10:05:20;99091.00;;;19.86;96.85
50226;BME280;36113;50.742;6.432;2022-07-23T10:07:46;99087.13;;;20.32;97.17
50226;BME280;36113;50.742;6.432;2022-07-23T10:10:13;99083.59;;;20.43;92.94
50226;BME280;36113;50.742;6.432;2022-07-23T10:12:39;99091.53;;;20.22;91.73
50226;BME280;36113;50.742;6.432;2022-07-23T10:15:16;99084.47;;;20.01;93.90
50226;BME280;36113;50.742;6.432;2022-07-23T10:17:42;99080.28;;;19.99;94.97
50226;BME280;36113;50.742;6.432;2022-07-23T10:20:08;99086.94;;;20.24;91.33
50226;BME280;36113;50.742;6.432;2022-07-23T10:22:36;99078.94;;;20.56;85.49
50226;BME280;36113;50.742;6.432;2022-07-23T10:25:13;99087.41;;;20.91;88.45
50226;BME280;36113;50.742;6.432;2022-07-23T10:36:20;99077.69;;;21.61;83.36
50226;BME280;36113;50.742;6.432;2022-07-23T10:41:12;99069.69;;;21.12;74.23
50226;BME280;36113;50.742;6.432;2022-07-23T10:43:37;99060.19;;;20.90;73.36
50226;BME280;36113;50.742;6.432;2022-07-23T10:46:35;99083.72;;;21.23;71.02
50226;BME280;36113;50.742;6.432;2022-07-23T10:54:45;99082.28;;;21.49;67.06
50226;BME280;36113;50.742;6.432;2022-07-23T10:57:11;99073.63;;;21.38;61.86
50226;BME280;36113;50.742;6.432;2022-07-23T11:02:45;99076.94;;;21.30;55.06
50226;BME280;36113;50.742;6.432;2022-07-23T11:05:19;99074.78;;;21.54;55.97
50226;BME280;36113;50.742;6.432;2022-07-23T11:10:34;99081.28;;;21.99;55.83
50226;BME280;36113;50.742;6.432;2022-07-23T11:34:54;99081.97;;;23.42;58.99
50226;BME280;36113;50.742;6.432;2022-07-23T11:37:35;99074.84;;;23.60;57.83
50226;BME280;36113;50.742;6.432;2022-07-23T11:40:05;99071.31;;;23.33;55.35
50226;BME280;36113;50.742;6.432;2022-07-23T11:42:32;99071.06;;;23.45;55.49
50226;BME280;36113;50.742;6.432;2022-07-23T11:44:57;99076.88;;;23.66;55.44
50226;BME280;36113;50.742;6.432;2022-07-23T11:47:24;99066.53;;;23.55;55.14
50226;BME280;36113;50.742;6.432;2022-07-23T11:49:54;99084.75;;;23.58;54.70
50226;BME280;36113;50.742;6.432;2022-07-23T11:52:20;99079.72;;;23.47;56.28
50226;BME280;36113;50.742;6.432;2022-07-23T11:54:53;99081.78;;;23.79;55.19
50226;BME280;36113;50.742;6.432;2022-07-23T11:57:20;99075.31;;;23.91;54.30
50226;BME280;36113;50.742;6.432;2022-07-23T11:59:47;99072.31;;;24.12;53.90
50226;BME280;36113;50.742;6.432;2022-07-23T12:02:15;99066.34;;;24.10;53.88
50226;BME280;36113;50.742;6.432;2022-07-23T12:04:46;99071.81;;;24.17;52.11
50226;BME280;36113;50.742;6.432;2022-07-23T12:09:58;99090.88;;;23.58;53.63
50226;BME280;36113;50.742;6.432;2022-07-23T12:12:24;99078.00;;;23.00;56.10
50226;BME280;36113;50.742;6.432;2022-07-23T12:14:58;99077.56;;;23.32;56.27
50226;BME280;36113;50.742;6.432;2022-07-23T12:17:28;99072.94;;;23.34;55.66
50226;BME280;36113;50.742;6.432;2022-07-23T12:19:56;99073.34;;;23.57;56.76
50226;BME280;36113;50.742;6.432;2022-07-23T12:22:23;99075.75;;;23.69;55.26
50226;BME280;36113;50.742;6.432;2022-07-23T12:27:22;99071.94;;;22.90;56.75
50226;BME280;36113;50.742;6.432;2022-07-23T12:29:47;99075.16;;;23.21;55.74
50226;BME280;36113;50.742;6.432;2022-07-23T12:34:48;99066.66;;;24.07;55.40
50226;BME280;36113;50.742;6.432;2022-07-23T12:37:32;99047.06;;;24.26;52.83
50226;BME280;36113;50.742;6.432;2022-07-23T12:39:58;99069.78;;;24.55;54.04
50226;BME280;36113;50.742;6.432;2022-07-23T12:42:23;99065.56;;;24.87;53.30
50226;BME280;36113;50.742;6.432;2022-07-23T12:45:10;99066.31;;;25.22;53.56
50226;BME280;36113;50.742;6.432;2022-07-23T12:47:56;99072.97;;;25.18;50.09
50226;BME280;36113;50.742;6.432;2022-07-23T12:50:36;99080.00;;;24.50;51.48
50226;BME280;36113;50.742;6.432;2022-07-23T12:53:08;99068.47;;;24.07;53.54
50226;BME280;36113;50.742;6.432;2022-07-23T12:55:35;99074.22;;;24.28;53.33
50226;BME280;36113;50.742;6.432;2022-07-23T13:00:53;99063.63;;;24.28;51.91
50226;BME280;36113;50.742;6.432;2022-07-23T13:03:37;99077.72;;;24.55;52.87
50226;BME280;36113;50.742;6.432;2022-07-23T13:06:05;99077.97;;;24.78;50.90
50226;BME280;36113;50.742;6.432;2022-07-23T13:08:32;99075.97;;;24.46;52.07
50226;BME280;36113;50.742;6.432;2022-07-23T13:10:59;99075.09;;;24.63;53.50
50226;BME280;36113;50.742;6.432;2022-07-23T13:13:25;99076.38;;;24.94;52.27
50226;BME280;36113;50.742;6.432;2022-07-23T13:15:51;99069.97;;;25.13;51.12
50226;BME280;36113;50.742;6.432;2022-07-23T13:18:17;99066.06;;;25.33;52.13
50226;BME280;36113;50.742;6.432;2022-07-23T13:20:44;99077.53;;;25.50;51.21
50226;BME280;36113;50.742;6.432;2022-07-23T13:23:10;99085.81;;;25.72;50.64
50226;BME280;36113;50.742;6.432;2022-07-23T13:25:35;99085.66;;;25.57;49.15
50226;BME280;36113;50.742;6.432;2022-07-23T13:28:00;99080.66;;;25.37;49.74
50226;BME280;36113;50.742;6.432;2022-07-23T13:30:26;99063.75;;;25.63;49.19
50226;BME280;36113;50.742;6.432;2022-07-23T13:32:52;99069.69;;;25.32;47.81
50226;BME280;36113;50.742;6.432;2022-07-23T13:35:17;99085.84;;;24.62;50.42
50226;BME280;36113;50.742;6.432;2022-07-23T13:37:42;99065.69;;;24.43;51.78
50226;BME280;36113;50.742;6.432;2022-07-23T13:40:08;99068.38;;;24.51;50.65
50226;BME280;36113;50.742;6.432;2022-07-23T13:42:34;99065.34;;;24.11;51.36
50226;BME280;36113;50.742;6.432;2022-07-23T13:44:59;99069.53;;;24.48;52.81
50226;BME280;36113;50.742;6.432;2022-07-23T13:47:25;99069.50;;;24.75;51.01
50226;BME280;36113;50.742;6.432;2022-07-23T13:49:50;99072.72;;;24.86;51.79
50226;BME280;36113;50.742;6.432;2022-07-23T13:52:16;99065.81;;;25.18;52.10